Airfield :
LOGIN :

Register | Disclaimer

   EN    FR    IT 

 










Legend :    VFR   Marginal VFR   IFR   Intensive IFR   Very Intensive IFR
Visi :
Ceiling :
>= 8 km
>= 3000ft
5 to 8 km
1000 to 3000 ft
1500m to 5 km
500 to 1000 ft
800 to 1500m
200 to 500 ft
< 800m
< 200 ft
Symbols :   Thunderstorms  Fog  Heavy snow  Heavy precipitations  Wind > 20 kt
SIGMETs :     Misc.  Thunderstorms  Icing  Turbulence  Mountain Waves  Volcanic Ashes







- Airport Elevation : 1046 ft
- IATA code : NUE


EDDN - Nuremberg

CURRENT METAR :
  • 100820Z 28017KT 9999 FEW020 SCT046 04/01 Q1018 NOSIG

EXPIRED METARs :
  • 100750Z 28014KT 9999 FEW016 SCT035 03/01 Q1018 NOSIG
  • 100720Z 28011KT 9999 FEW015 SCT023 03/01 Q1017 NOSIG
  • 100650Z 28011KT 9999 FEW016 SCT037 03/01 Q1017 NOSIG
  • 100620Z 28012KT 9999 FEW016 03/01 Q1016 NOSIG
  • 100550Z 29010KT 9999 SCT018 03/01 Q1016 NOSIG

TAF TAF EDDN
Valid from the 10 at 06:00 until the 11 at 06:00 UTC


100500Z 1006/1106 28015G25KT 9999 BKN020
PROB40
TEMPO 1014/1024 SHSNRA BKN012TCU
PROB30
TEMPO 1100/1106 2000 SHSN BKN008TCU
No reported NOTAMs for that airfield.



MET'MAP, your aeronautical weather chart ! - Copyright ORBIFLY December 2007 - Disclaimer

ORBIFLY MET'MAP TEAM :

Programming & Development : Alexandra Zaïnal
Concept & Development : Baudouin d'Aumeries
Co-Development & Prog : Marc-Olivier Méhu
Technical & hardware support : Manuel Goepfert

Contact : metmap@orbifly.com




SOURCES & CREDITS :

   NOAA